Time;durP1;ratioP1;P1;durP2;ratioP2;P2;SDS_P1;SDS_P2;PMS_P1;PMS_P2;Temp;Humidity;BMP_temperature;BMP_pressure;BME280_temperature;BME280_humidity;BME280_pressure;Samples;Min_cycle;Max_cycle;Signal;HPM_P1;HPM_P2
2022/07/02 00:01:54;;;;;;;8.00;7.00;;;17.10;92.20;;;;;;5062539;28;20098;-69
2022/07/02 00:04:26;;;;;;;7.35;6.75;;;17.10;92.10;;;;;;5060975;28;20096;-69
2022/07/02 00:06:52;;;;;;;7.72;7.13;;;17.10;92.00;;;;;;5059677;28;20393;-69
2022/07/02 00:09:19;;;;;;;11.82;6.35;;;17.00;92.00;;;;;;5056460;28;20098;-69
2022/07/02 00:11:47;;;;;;;7.85;7.13;;;17.00;92.00;;;;;;5060749;28;20032;-71
2022/07/02 00:14:15;;;;;;;8.30;7.60;;;17.00;92.10;;;;;;5066702;28;20025;-70
2022/07/02 00:16:45;;;;;;;8.75;7.95;;;17.00;92.10;;;;;;5063591;28;20025;-74
2022/07/02 00:19:13;;;;;;;9.02;8.32;;;17.00;92.20;;;;;;5064894;28;20424;-69
2022/07/02 00:21:39;;;;;;;9.00;8.20;;;17.00;92.00;;;;;;5061979;28;20017;-71
2022/07/02 00:24:09;;;;;;;9.93;9.02;;;17.00;92.10;;;;;;5064168;28;20425;-72
2022/07/02 00:26:40;;;;;;;11.10;10.00;;;17.00;92.10;;;;;;5066362;28;20054;-70
2022/07/02 00:29:20;;;;;;;12.00;10.90;;;17.00;92.10;;;;;;5065312;28;20028;-73
2022/07/02 00:31:49;;;;;;;12.23;11.02;;;17.00;92.10;;;;;;5062586;28;20028;-69
2022/07/02 00:34:16;;;;;;;11.60;10.40;;;16.90;92.10;;;;;;5064107;28;20025;-73
2022/07/02 00:36:45;;;;;;;13.75;10.73;;;17.00;92.10;;;;;;5065658;28;20028;-71
2022/07/02 00:39:11;;;;;;;12.77;11.57;;;16.90;92.10;;;;;;5064722;28;20040;-72
2022/07/02 00:41:38;;;;;;;12.90;11.60;;;16.90;92.10;;;;;;5063972;28;20459;-69
2022/07/02 00:44:05;;;;;;;14.43;11.27;;;16.90;92.10;;;;;;5065335;28;20024;-71
2022/07/02 00:46:34;;;;;;;10.70;9.60;;;16.90;92.00;;;;;;5065847;28;20036;-73
2022/07/02 00:49:01;;;;;;;13.88;10.27;;;16.80;91.90;;;;;;5062050;28;20360;-71
2022/07/02 00:51:27;;;;;;;12.00;10.32;;;16.80;92.00;;;;;;5064727;28;20016;-71
2022/07/02 00:53:53;;;;;;;10.68;9.50;;;16.80;92.00;;;;;;5065958;28;20386;-69
2022/07/02 00:56:19;;;;;;;11.75;10.55;;;16.80;92.10;;;;;;5061981;28;20087;-71
2022/07/02 00:58:46;;;;;;;10.65;9.55;;;16.80;92.10;;;;;;5064785;28;20051;-72
2022/07/02 01:01:12;;;;;;;11.85;10.75;;;16.80;92.10;;;;;;5065708;28;20021;-69
2022/07/02 01:03:41;;;;;;;11.38;10.20;;;16.80;92.10;;;;;;5060971;28;20079;-70
2022/07/02 01:06:07;;;;;;;15.35;10.60;;;16.80;92.10;;;;;;5064506;28;20078;-70
2022/07/02 01:11:19;;;;;;;12.60;11.38;;;16.80;92.10;;;;;;5065404;28;20032;-72
2022/07/02 01:13:45;;;;;;;13.38;11.50;;;16.80;92.10;;;;;;5064296;28;20021;-70
2022/07/02 01:16:10;;;;;;;12.02;10.68;;;16.80;92.10;;;;;;5063653;28;20020;-74
2022/07/02 01:18:37;;;;;;;10.13;9.20;;;16.80;92.10;;;;;;5065283;28;20013;-74
2022/07/02 01:21:04;;;;;;;10.60;9.55;;;16.80;92.20;;;;;;5063909;28;20287;-70
2022/07/02 01:23:30;;;;;;;10.05;9.18;;;16.70;92.10;;;;;;5062886;28;20027;-70
2022/07/02 01:25:56;;;;;;;8.80;8.00;;;16.70;92.10;;;;;;5065103;28;20028;-71
2022/07/02 01:28:22;;;;;;;10.32;9.32;;;16.80;92.50;;;;;;5062360;28;20505;-72
2022/07/02 01:30:49;;;;;;;9.23;8.32;;;16.70;92.10;;;;;;5063697;28;20028;-72
2022/07/02 01:33:15;;;;;;;10.25;8.85;;;16.70;92.20;;;;;;5065013;28;20032;-72
2022/07/02 01:35:41;;;;;;;10.63;9.63;;;16.70;92.20;;;;;;5063323;28;20467;-70
2022/07/02 01:38:07;;;;;;;10.52;9.63;;;16.70;92.20;;;;;;5063754;28;20013;-72
2022/07/02 01:40:33;;;;;;;10.13;9.15;;;16.70;92.20;;;;;;5064899;28;20033;-72
2022/07/02 01:42:59;;;;;;;9.35;8.52;;;16.70;92.10;;;;;;5060162;28;20092;-71
2022/07/02 01:45:24;;;;;;;9.45;8.65;;;16.70;92.10;;;;;;5064062;28;20426;-72
2022/07/02 01:47:50;;;;;;;14.40;10.95;;;16.70;92.10;;;;;;5064330;28;20036;-74
2022/07/02 01:50:16;;;;;;;13.30;10.57;;;16.60;91.90;;;;;;5062546;28;20017;-72
2022/07/02 01:52:42;;;;;;;10.75;9.68;;;16.60;92.00;;;;;;5063688;28;20023;-72
2022/07/02 01:55:08;;;;;;;13.90;11.93;;;16.60;91.90;;;;;;5062200;28;20044;-73
2022/07/02 01:57:35;;;;;;;12.63;11.32;;;16.60;91.90;;;;;;5061166;28;20033;-71
2022/07/02 02:00:07;;;;;;;13.43;12.02;;;16.50;91.90;;;;;;5063014;28;20027;-72
2022/07/02 02:02:33;;;;;;;12.48;11.27;;;16.50;91.90;;;;;;5064467;28;20378;-73
2022/07/02 02:04:58;;;;;;;14.10;12.60;;;16.50;92.00;;;;;;5058294;28;20434;-72
2022/07/02 02:07:24;;;;;;;13.35;11.13;;;16.50;92.10;;;;;;5063701;28;20024;-71
2022/07/02 02:09:50;;;;;;;10.50;9.30;;;16.50;92.10;;;;;;5063960;28;20025;-73
2022/07/02 02:12:16;;;;;;;11.45;10.25;;;16.50;92.10;;;;;;5062235;28;20082;-71
2022/07/02 02:14:42;;;;;;;12.50;11.20;;;16.40;92.10;;;;;;5063855;28;20030;-71
2022/07/02 02:17:08;;;;;;;10.00;9.10;;;16.40;92.00;;;;;;5063364;28;20025;-73
2022/07/02 02:19:34;;;;;;;11.18;10.18;;;16.40;92.00;;;;;;5062129;28;20029;-73
2022/07/02 02:21:59;;;;;;;12.13;10.50;;;16.40;92.00;;;;;;5064007;28;20017;-73
2022/07/02 02:24:25;;;;;;;17.02;11.45;;;16.40;91.90;;;;;;5062964;28;20020;-71
2022/07/02 02:26:51;;;;;;;13.55;10.93;;;16.30;92.00;;;;;;5062287;28;20048;-73
2022/07/02 02:29:17;;;;;;;17.73;13.07;;;16.30;92.00;;;;;;5063957;28;20019;-71
2022/07/02 02:31:43;;;;;;;14.63;13.13;;;16.30;92.10;;;;;;5062468;28;20025;-69
2022/07/02 02:34:09;;;;;;;15.52;12.32;;;16.30;92.10;;;;;;5062381;28;20020;-73
2022/07/02 02:36:34;;;;;;;14.55;13.05;;;16.30;92.10;;;;;;5062671;28;20025;-70
2022/07/02 02:39:00;;;;;;;20.25;15.50;;;16.30;92.10;;;;;;5062038;28;20024;-71
2022/07/02 02:41:26;;;;;;;16.13;14.43;;;16.30;92.20;;;;;;5062712;28;20382;-70
2022/07/02 02:43:52;;;;;;;12.65;11.32;;;16.30;92.20;;;;;;5062229;28;20013;-72
2022/07/02 02:46:18;;;;;;;11.80;10.60;;;16.30;92.20;;;;;;5060258;28;20029;-74
2022/07/02 02:48:44;;;;;;;11.82;10.45;;;16.30;92.20;;;;;;5061552;28;20027;-73
2022/07/02 02:51:14;;;;;;;13.07;10.55;;;16.40;92.30;;;;;;5063358;28;20376;-72
2022/07/02 02:53:42;;;;;;;13.30;11.95;;;16.30;92.30;;;;;;5058940;28;20017;-73
2022/07/02 02:56:08;;;;;;;13.73;11.35;;;16.40;92.30;;;;;;5061878;28;20046;-72
2022/07/02 02:58:34;;;;;;;10.73;9.63;;;16.40;92.20;;;;;;5063420;28;20028;-73
2022/07/02 03:01:00;;;;;;;10.90;9.80;;;16.40;92.20;;;;;;5061824;28;20356;-74
2022/07/02 03:03:26;;;;;;;15.15;13.55;;;16.40;92.10;;;;;;5061016;28;20048;-70
2022/07/02 03:05:52;;;;;;;14.90;12.50;;;16.40;92.00;;;;;;5063153;28;20072;-70
2022/07/02 03:08:19;;;;;;;12.15;10.93;;;16.30;92.00;;;;;;5061020;28;20459;-72
2022/07/02 03:10:44;;;;;;;14.85;13.07;;;16.30;91.90;;;;;;5062455;28;20028;-70
2022/07/02 03:13:10;;;;;;;18.27;15.07;;;16.30;91.90;;;;;;5062966;28;20020;-71
2022/07/02 03:15:36;;;;;;;21.02;17.13;;;16.20;91.80;;;;;;5059622;28;20474;-72
2022/07/02 03:18:03;;;;;;;19.73;15.90;;;16.20;91.70;;;;;;5062655;28;20029;-73
2022/07/02 03:20:29;;;;;;;22.85;17.08;;;16.20;91.80;;;;;;5062332;28;20013;-71
2022/07/02 03:22:55;;;;;;;23.58;17.13;;;16.20;91.80;;;;;;5061008;28;20044;-71
2022/07/02 03:25:21;;;;;;;19.88;14.38;;;16.10;91.80;;;;;;5061686;28;20059;-72
2022/07/02 03:27:47;;;;;;;16.85;14.38;;;16.10;91.80;;;;;;5061915;28;20024;-74
2022/07/02 03:30:13;;;;;;;19.27;13.43;;;16.10;91.80;;;;;;5060991;28;20107;-74
2022/07/02 03:32:39;;;;;;;17.98;14.38;;;16.10;91.90;;;;;;5062781;28;20020;-72
2022/07/02 03:35:05;;;;;;;21.58;15.15;;;16.10;91.90;;;;;;5061537;28;20021;-74
2022/07/02 03:37:31;;;;;;;17.83;14.80;;;16.10;91.90;;;;;;5061107;28;20021;-71
2022/07/02 03:39:57;;;;;;;24.70;17.65;;;16.10;92.00;;;;;;5062666;28;20090;-74
2022/07/02 03:42:23;;;;;;;25.75;17.35;;;16.10;92.10;;;;;;5059967;28;20436;-72
2022/07/02 03:44:49;;;;;;;21.50;17.17;;;16.10;92.10;;;;;;5061298;28;20016;-73
2022/07/02 03:47:16;;;;;;;21.30;16.45;;;16.20;92.30;;;;;;5062329;28;20028;-73
2022/07/02 03:49:42;;;;;;;23.20;17.77;;;16.20;92.40;;;;;;5060994;28;20104;-74
2022/07/02 03:52:08;;;;;;;28.65;17.30;;;16.30;92.60;;;;;;5062142;28;20031;-74
2022/07/02 03:54:34;;;;;;;24.38;18.42;;;16.40;92.70;;;;;;5060527;28;20029;-74
2022/07/02 03:56:59;;;;;;;17.27;14.13;;;16.40;92.60;;;;;;5056342;28;20041;-71
2022/07/02 03:59:27;;;;;;;13.93;11.77;;;16.50;92.60;;;;;;5061389;28;20044;-72
2022/07/02 04:01:52;;;;;;;14.30;10.90;;;16.50;92.40;;;;;;5062335;28;20100;-74
2022/07/02 04:04:19;;;;;;;10.10;8.93;;;16.50;92.20;;;;;;5060421;28;20067;-74
2022/07/02 04:06:45;;;;;;;10.82;8.15;;;16.50;92.10;;;;;;5061738;28;20828;-69
2022/07/02 04:09:11;;;;;;;7.40;6.43;;;16.40;92.00;;;;;;5061275;28;20027;-73
2022/07/02 04:11:37;;;;;;;7.30;6.60;;;16.40;92.00;;;;;;5060376;28;20450;-73
2022/07/02 04:14:04;;;;;;;6.20;5.60;;;16.40;92.10;;;;;;5058363;28;20033;-74
2022/07/02 04:16:30;;;;;;;6.28;5.63;;;16.40;92.20;;;;;;5052655;28;20467;-73
2022/07/02 04:18:56;;;;;;;14.00;10.05;;;16.50;92.30;;;;;;5051387;28;20078;-74
2022/07/02 04:21:22;;;;;;;19.40;15.63;;;16.50;92.50;;;;;;5052675;28;20017;-74
2022/07/02 04:23:48;;;;;;;21.85;16.13;;;16.50;92.50;;;;;;5052770;28;20017;-75
2022/07/02 04:26:14;;;;;;;28.60;17.98;;;16.60;92.50;;;;;;5052719;28;20640;-71
2022/07/02 04:28:40;;;;;;;20.98;16.98;;;16.60;92.40;;;;;;5052640;28;20083;-71
2022/07/02 04:31:05;;;;;;;22.80;15.93;;;16.70;92.40;;;;;;5052634;28;20025;-70
2022/07/02 04:33:31;;;;;;;20.98;16.42;;;16.70;92.70;;;;;;5052587;28;20394;-74
2022/07/02 04:35:57;;;;;;;25.05;18.10;;;16.80;92.70;;;;;;5051291;28;20033;-74
2022/07/02 04:38:23;;;;;;;20.65;15.68;;;16.90;92.80;;;;;;5052672;28;20025;-73
2022/07/02 04:40:49;;;;;;;19.45;15.65;;;16.90;92.70;;;;;;5052572;28;20029;-72
2022/07/02 04:43:14;;;;;;;21.63;14.90;;;17.00;92.70;;;;;;5052571;28;20032;-73
2022/07/02 04:45:40;;;;;;;18.92;14.88;;;17.00;92.70;;;;;;5051282;28;20021;-71
2022/07/02 04:48:07;;;;;;;18.08;14.52;;;17.10;92.80;;;;;;5052484;28;20028;-74
2022/07/02 04:50:33;;;;;;;19.65;14.13;;;17.20;93.00;;;;;;5034944;28;20080;-71
2022/07/02 04:52:59;;;;;;;17.70;13.55;;;17.30;92.90;;;;;;5032621;28;20022;-72
2022/07/02 04:55:25;;;;;;;15.82;12.45;;;17.30;92.80;;;;;;5030992;28;20154;-72
2022/07/02 04:57:51;;;;;;;13.73;10.27;;;17.40;92.60;;;;;;5032470;28;20036;-70
2022/07/02 05:00:17;;;;;;;14.52;9.93;;;17.40;92.40;;;;;;5035280;28;20021;-71
2022/07/02 05:02:43;;;;;;;16.45;9.90;;;17.40;92.30;;;;;;5036163;28;20215;-75
2022/07/02 05:05:09;;;;;;;17.80;10.60;;;17.40;92.20;;;;;;5036229;28;20029;-73
2022/07/02 05:07:35;;;;;;;11.45;9.70;;;17.30;91.80;;;;;;5036041;28;20022;-74
2022/07/02 05:10:02;;;;;;;15.05;10.23;;;17.30;91.70;;;;;;5034866;28;20119;-73
2022/07/02 05:12:28;;;;;;;11.30;10.10;;;17.30;91.50;;;;;;5036074;28;20022;-72
2022/07/02 05:14:54;;;;;;;24.77;10.25;;;17.20;91.20;;;;;;5035931;28;20029;-74
2022/07/02 05:17:19;;;;;;;12.88;10.07;;;17.20;91.20;;;;;;5034533;28;20036;-72
2022/07/02 05:19:45;;;;;;;32.05;12.77;;;17.20;91.30;;;;;;5035867;28;20029;-71
2022/07/02 05:22:11;;;;;;;43.40;10.95;;;17.10;91.30;;;;;;5035875;28;20022;-73
2022/07/02 05:24:37;;;;;;;54.97;12.75;;;17.10;91.40;;;;;;5035788;28;20083;-74
2022/07/02 05:27:03;;;;;;;32.28;12.18;;;17.20;91.50;;;;;;5034475;28;20091;-72
2022/07/02 05:29:29;;;;;;;18.65;10.15;;;17.20;91.50;;;;;;5035650;28;20021;-74
2022/07/02 05:31:54;;;;;;;24.80;10.00;;;17.20;91.70;;;;;;5035594;28;20025;-70
2022/07/02 05:34:20;;;;;;;18.00;9.18;;;17.20;92.00;;;;;;5035631;28;20030;-71
2022/07/02 05:36:47;;;;;;;14.40;9.40;;;17.40;92.70;;;;;;5035427;28;20056;-71
2022/07/02 05:39:13;;;;;;;16.02;10.73;;;17.50;93.30;;;;;;5035586;28;20025;-73
2022/07/02 05:41:39;;;;;;;13.43;9.98;;;17.70;93.60;;;;;;5053968;28;20048;-71
2022/07/02 05:44:05;;;;;;;9.82;8.77;;;17.90;93.20;;;;;;5069795;28;20048;-71
2022/07/02 05:46:32;;;;;;;8.52;7.72;;;18.00;93.40;;;;;;5064814;28;20071;-73
2022/07/02 05:48:57;;;;;;;10.95;9.38;;;18.20;93.70;;;;;;5059045;28;20032;-72
2022/07/02 05:51:23;;;;;;;11.45;9.20;;;18.30;93.70;;;;;;5063251;28;20487;-72
2022/07/02 05:53:49;;;;;;;13.75;9.30;;;18.50;93.90;;;;;;5063873;28;20021;-72
2022/07/02 05:56:15;;;;;;;12.68;10.05;;;18.60;93.70;;;;;;5062642;28;20509;-72
2022/07/02 05:58:41;;;;;;;10.85;9.50;;;18.70;93.40;;;;;;5062842;28;20682;-71
2022/07/02 06:01:07;;;;;;;14.77;10.32;;;18.80;92.90;;;;;;5063862;28;20024;-74
2022/07/02 06:03:33;;;;;;;9.57;8.52;;;18.80;92.10;;;;;;5062838;28;20017;-72
2022/07/02 06:08:43;;;;;;;10.27;9.00;;;18.80;91.70;;;;;;5058600;28;20055;-71
2022/07/02 06:11:10;;;;;;;9.90;8.90;;;18.80;91.70;;;;;;5064077;28;20025;-72
2022/07/02 06:13:36;;;;;;;11.85;8.68;;;18.90;91.50;;;;;;5062729;28;20021;-75
2022/07/02 06:16:02;;;;;;;10.10;8.48;;;18.90;91.60;;;;;;5062792;28;20402;-75
2022/07/02 06:18:28;;;;;;;9.60;8.60;;;19.00;91.80;;;;;;5061741;28;20435;-74
2022/07/02 06:20:54;;;;;;;10.55;8.55;;;19.00;91.80;;;;;;5063999;28;20109;-73
2022/07/02 06:23:21;;;;;;;15.38;8.10;;;19.00;91.60;;;;;;5063173;28;20017;-75
2022/07/02 06:25:50;;;;;;;8.85;7.60;;;19.10;91.60;;;;;;5057378;28;20033;-71
2022/07/02 06:28:17;;;;;;;10.02;8.45;;;19.10;91.80;;;;;;5044463;28;20025;-74
2022/07/02 06:30:42;;;;;;;14.82;10.55;;;19.30;92.20;;;;;;5048955;28;20056;-73
2022/07/02 06:33:08;;;;;;;17.38;14.48;;;19.40;92.50;;;;;;5062992;28;20048;-73
2022/07/02 06:35:34;;;;;;;13.20;11.55;;;19.50;92.30;;;;;;5061801;28;20067;-73
2022/07/02 06:38:00;;;;;;;12.88;10.93;;;19.60;92.20;;;;;;5063364;28;20033;-75
2022/07/02 06:40:26;;;;;;;13.77;11.10;;;19.70;92.50;;;;;;5062161;28;20067;-75
2022/07/02 06:42:52;;;;;;;24.15;16.50;;;19.90;92.40;;;;;;5061782;28;20017;-74
2022/07/02 06:45:18;;;;;;;24.95;19.98;;;20.00;92.30;;;;;;5063346;28;20095;-73
2022/07/02 06:47:44;;;;;;;25.90;22.13;;;20.00;91.80;;;;;;5058674;28;20557;-73
2022/07/02 06:50:11;;;;;;;25.65;19.58;;;20.10;91.50;;;;;;5063457;28;20028;-71
2022/07/02 06:52:37;;;;;;;35.90;25.08;;;20.20;91.50;;;;;;5061733;28;20017;-73
2022/07/02 06:55:04;;;;;;;34.28;24.48;;;20.20;91.20;;;;;;5061993;28;20081;-75
2022/07/02 06:57:30;;;;;;;31.73;22.48;;;20.20;90.70;;;;;;5055660;28;20044;-71
2022/07/02 06:59:56;;;;;;;30.35;20.30;;;20.20;90.60;;;;;;5041741;28;20017;-73
2022/07/02 07:02:22;;;;;;;31.10;20.63;;;20.20;90.40;;;;;;5054524;28;20036;-72
2022/07/02 07:04:49;;;;;;;37.25;25.45;;;20.20;90.20;;;;;;5042353;28;20017;-72
2022/07/02 07:07:14;;;;;;;45.08;29.48;;;20.10;89.30;;;;;;5043496;28;20039;-71
2022/07/02 07:09:40;;;;;;;43.58;27.27;;;20.00;88.40;;;;;;5041310;28;20112;-72
2022/07/02 07:12:07;;;;;;;42.40;27.90;;;20.00;88.90;;;;;;5041189;28;20036;-73
2022/07/02 07:14:35;;;;;;;49.13;31.00;;;20.00;89.30;;;;;;5043088;28;20035;-72
2022/07/02 07:17:01;;;;;;;56.38;33.50;;;19.90;89.10;;;;;;5042421;28;20060;-75
2022/07/02 07:19:27;;;;;;;57.38;34.90;;;19.90;89.30;;;;;;5041109;28;20065;-71
2022/07/02 07:21:53;;;;;;;62.85;37.58;;;19.90;88.60;;;;;;5042508;28;20104;-74
2022/07/02 07:24:18;;;;;;;70.13;41.25;;;19.80;88.40;;;;;;5040528;28;20100;-74
2022/07/02 07:26:44;;;;;;;70.03;41.45;;;19.80;88.90;;;;;;5041629;28;20112;-74
2022/07/02 07:29:10;;;;;;;79.25;45.58;;;19.90;89.20;;;;;;5041295;28;20417;-72
2022/07/02 07:31:36;;;;;;;89.32;48.45;;;20.00;89.60;;;;;;5042578;28;20032;-71
2022/07/02 07:34:03;;;;;;;79.93;44.25;;;20.10;90.00;;;;;;5042535;28;20037;-74
2022/07/02 07:36:29;;;;;;;72.38;42.25;;;20.20;90.10;;;;;;5052617;28;20040;-72
2022/07/02 07:38:56;;;;;;;85.38;48.83;;;20.30;90.30;;;;;;5063537;28;20025;-72
2022/07/02 07:41:23;;;;;;;84.75;51.67;;;20.40;89.00;;;;;;5062985;28;20029;-72
2022/07/02 07:43:51;;;;;;;90.18;51.53;;;20.50;89.20;;;;;;5061520;28;20022;-73
2022/07/02 07:46:18;;;;;;;75.22;43.15;;;20.70;89.70;;;;;;5061001;28;20028;-72
2022/07/02 07:48:43;;;;;;;59.67;36.33;;;20.80;88.40;;;;;;5063072;28;20029;-74
2022/07/02 07:51:09;;;;;;;58.60;35.30;;;20.80;87.20;;;;;;5064018;28;20402;-74
2022/07/02 07:53:35;;;;;;;56.90;33.42;;;20.90;87.30;;;;;;5054264;28;20107;-72
2022/07/02 07:56:01;;;;;;;62.38;35.35;;;21.00;87.10;;;;;;5039107;28;20052;-73
2022/07/02 07:58:27;;;;;;;56.92;32.70;;;21.10;86.00;;;;;;5041461;28;20045;-72
2022/07/02 08:00:52;;;;;;;54.75;33.40;;;21.10;84.40;;;;;;5041200;28;20559;-73
2022/07/02 08:03:19;;;;;;;61.10;33.47;;;21.10;84.40;;;;;;5039256;28;20021;-71
2022/07/02 08:05:54;;;;;;;52.50;29.05;;;21.20;81.90;;;;;;5040352;28;20082;-72
2022/07/02 08:08:21;;;;;;;47.47;27.42;;;21.20;82.20;;;;;;5041257;28;20028;-73
2022/07/02 08:10:47;;;;;;;45.92;25.45;;;21.20;80.20;;;;;;5041227;28;20017;-70
2022/07/02 08:13:13;;;;;;;42.58;25.15;;;21.20;78.10;;;;;;5040538;28;20392;-72
2022/07/02 08:15:38;;;;;;;41.67;23.63;;;21.10;76.10;;;;;;5042250;28;20017;-70
2022/07/02 08:18:04;;;;;;;31.50;20.20;;;21.10;74.90;;;;;;5040835;28;20100;-72
2022/07/02 08:20:30;;;;;;;38.10;22.00;;;21.10;78.00;;;;;;5040766;28;20017;-70
2022/07/02 08:22:56;;;;;;;34.65;21.90;;;21.10;77.30;;;;;;5042100;28;20471;-71
2022/07/02 08:25:22;;;;;;;37.28;21.60;;;21.10;77.10;;;;;;5040434;28;20456;-71
2022/07/02 08:27:48;;;;;;;52.42;22.33;;;21.10;80.40;;;;;;5040986;28;20025;-70
2022/07/02 08:30:14;;;;;;;35.45;20.05;;;21.20;79.70;;;;;;5042001;28;20364;-70
2022/07/02 08:32:40;;;;;;;29.50;16.35;;;21.20;77.20;;;;;;5041144;28;20021;-69
2022/07/02 08:35:06;;;;;;;32.72;17.92;;;21.30;77.50;;;;;;5044868;28;20514;-71
2022/07/02 08:37:32;;;;;;;34.95;18.30;;;21.40;80.50;;;;;;5044258;28;20017;-73
2022/07/02 08:39:58;;;;;;;25.83;15.18;;;21.40;79.60;;;;;;5045921;28;20029;-72
2022/07/02 08:42:26;;;;;;;27.48;14.82;;;21.40;77.20;;;;;;5044492;28;20021;-72
2022/07/02 08:44:54;;;;;;;27.48;15.85;;;21.50;75.60;;;;;;5042496;28;20386;-72
2022/07/02 08:47:21;;;;;;;25.25;14.18;;;21.60;79.20;;;;;;5043943;28;20014;-71
2022/07/02 08:49:48;;;;;;;22.42;12.23;;;21.70;79.80;;;;;;5044814;28;20098;-72
2022/07/02 08:52:17;;;;;;;26.88;14.32;;;21.70;76.70;;;;;;5045753;28;20029;-71
2022/07/02 08:54:45;;;;;;;24.15;13.65;;;21.70;75.70;;;;;;5044066;28;20030;-72
2022/07/02 08:57:12;;;;;;;20.80;11.60;;;21.80;76.20;;;;;;5043891;28;20087;-72
2022/07/02 08:59:38;;;;;;;17.48;9.55;;;21.80;77.30;;;;;;5045526;28;20040;-72
2022/07/02 09:02:06;;;;;;;13.98;8.75;;;21.80;76.60;;;;;;5042852;28;20025;-72
2022/07/02 09:04:34;;;;;;;11.63;7.43;;;21.80;76.10;;;;;;5043852;28;20024;-72
2022/07/02 09:07:03;;;;;;;11.18;7.15;;;21.90;74.90;;;;;;5045349;28;20021;-72
2022/07/02 09:09:30;;;;;;;12.18;6.25;;;21.90;77.40;;;;;;5044635;28;20013;-71
2022/07/02 09:11:57;;;;;;;11.30;6.57;;;21.90;78.00;;;;;;5043186;28;20020;-72
2022/07/02 09:14:23;;;;;;;11.80;6.60;;;22.00;77.90;;;;;;5044908;28;20025;-71
2022/07/02 09:16:50;;;;;;;11.30;5.95;;;22.00;78.40;;;;;;5044654;28;20056;-71
2022/07/02 09:19:17;;;;;;;8.43;4.22;;;22.10;75.00;;;;;;5043254;28;20049;-72
2022/07/02 09:21:51;;;;;;;11.73;5.65;;;22.10;75.90;;;;;;5043641;28;20032;-72
2022/07/02 09:24:28;;;;;;;11.90;6.57;;;22.20;74.30;;;;;;5043896;28;20429;-71
2022/07/02 09:27:08;;;;;;;17.27;7.95;;;22.20;74.50;;;;;;5045059;28;20041;-70
2022/07/02 09:29:48;;;;;;;18.38;9.27;;;22.20;73.80;;;;;;5045389;28;20359;-70
2022/07/02 09:32:15;;;;;;;15.02;8.75;;;22.30;73.10;;;;;;5037100;28;20040;-71
2022/07/02 09:34:43;;;;;;;15.77;10.20;;;22.30;73.90;;;;;;5035122;28;20091;-73
2022/07/02 09:37:23;;;;;;;16.73;10.13;;;22.30;72.30;;;;;;5035409;28;20477;-73
2022/07/02 09:39:51;;;;;;;14.23;8.18;;;22.30;73.00;;;;;;5035336;28;20383;-73
2022/07/02 09:42:28;;;;;;;10.98;6.90;;;22.30;70.90;;;;;;5035117;28;20021;-71
2022/07/02 09:44:55;;;;;;;12.57;7.25;;;22.40;72.80;;;;;;5034727;28;20021;-70
2022/07/02 09:47:34;;;;;;;10.45;6.82;;;22.40;73.20;;;;;;5035227;28;20025;-72
2022/07/02 09:50:07;;;;;;;11.02;6.47;;;22.50;74.20;;;;;;5035254;28;20481;-72
2022/07/02 09:52:33;;;;;;;8.32;4.72;;;22.50;72.70;;;;;;5033750;28;20057;-71
2022/07/02 09:55:00;;;;;;;7.30;4.50;;;22.60;75.70;;;;;;5034863;28;20053;-69
2022/07/02 09:57:26;;;;;;;5.97;3.97;;;22.60;72.00;;;;;;5035066;28;20475;-70
2022/07/02 09:59:52;;;;;;;5.00;3.60;;;22.70;71.20;;;;;;5035101;28;20029;-71
2022/07/02 10:02:24;;;;;;;7.25;3.88;;;22.70;71.20;;;;;;5035005;28;20383;-72
2022/07/02 10:04:51;;;;;;;7.38;4.82;;;22.80;72.80;;;;;;5033759;28;20021;-70
2022/07/02 10:07:22;;;;;;;6.65;4.55;;;22.80;71.90;;;;;;5034884;28;20487;-72
2022/07/02 10:09:49;;;;;;;8.52;5.22;;;22.90;72.80;;;;;;5034867;28;20040;-72
2022/07/02 10:12:16;;;;;;;13.93;4.75;;;22.90;70.20;;;;;;5034769;28;20028;-71
2022/07/02 10:14:44;;;;;;;9.43;5.43;;;22.90;68.20;;;;;;5034667;28;20025;-72
2022/07/02 10:17:10;;;;;;;6.03;4.45;;;22.90;70.60;;;;;;5034583;28;20483;-71
2022/07/02 10:19:38;;;;;;;8.90;5.20;;;23.00;71.10;;;;;;5034681;28;20052;-71
2022/07/02 10:22:06;;;;;;;8.63;5.05;;;23.00;72.70;;;;;;5034588;28;20045;-72
2022/07/02 10:24:34;;;;;;;10.80;5.45;;;23.10;69.10;;;;;;5039500;28;20372;-73
2022/07/02 10:27:01;;;;;;;11.00;6.35;;;23.10;70.20;;;;;;5043333;28;20032;-71
2022/07/02 10:29:29;;;;;;;11.10;5.88;;;23.10;69.80;;;;;;5043846;28;20029;-71
2022/07/02 10:32:25;;;;;;;14.20;6.40;;;23.10;66.80;;;;;;5043913;28;20021;-72
2022/07/02 10:35:11;;;;;;;10.13;5.80;;;23.20;70.00;;;;;;5041682;28;20084;-73
2022/07/02 10:37:41;;;;;;;7.65;5.30;;;23.30;70.00;;;;;;5041846;28;20378;-72
2022/07/02 10:40:09;;;;;;;9.02;5.10;;;23.30;65.40;;;;;;5042127;28;20375;-70
2022/07/02 10:42:39;;;;;;;13.82;5.28;;;23.40;66.50;;;;;;5042282;28;20021;-72
2022/07/02 10:45:12;;;;;;;6.05;3.95;;;23.40;67.50;;;;;;5042777;28;20418;-72
2022/07/02 10:47:51;;;;;;;6.50;4.10;;;23.40;67.10;;;;;;5042342;28;20082;-72
2022/07/02 10:50:17;;;;;;;8.27;4.95;;;23.50;68.80;;;;;;5043457;28;20036;-72
2022/07/02 10:52:51;;;;;;;5.85;3.88;;;23.50;70.60;;;;;;5042381;28;20037;-71
2022/07/02 10:55:30;;;;;;;6.22;4.00;;;23.50;67.40;;;;;;5041160;28;20146;-72
2022/07/02 10:57:58;;;;;;;3.80;3.30;;;23.60;69.20;;;;;;5040247;28;20025;-71
2022/07/02 11:00:32;;;;;;;8.43;3.88;;;23.70;69.70;;;;;;5042330;28;20025;-72
2022/07/02 11:03:09;;;;;;;5.95;3.63;;;23.80;67.20;;;;;;5041690;28;20086;-72
2022/07/02 11:05:47;;;;;;;5.82;2.85;;;23.80;69.40;;;;;;5041281;28;20474;-71
2022/07/02 11:08:45;;;;;;;4.22;3.00;;;23.90;69.20;;;;;;5041298;28;20536;-70
2022/07/02 11:11:13;;;;;;;4.50;2.65;;;24.00;70.50;;;;;;5043310;28;20066;-71
2022/07/02 11:13:49;;;;;;;3.28;2.25;;;24.00;64.20;;;;;;5041958;28;20383;-70
2022/07/02 11:16:20;;;;;;;3.20;2.30;;;24.00;66.00;;;;;;5043124;28;20025;-70
2022/07/02 11:18:47;;;;;;;3.72;2.38;;;24.10;68.60;;;;;;5042556;28;20060;-71
2022/07/02 11:21:13;;;;;;;3.28;2.40;;;24.10;69.00;;;;;;5041088;28;20026;-72
2022/07/02 11:23:40;;;;;;;3.40;2.55;;;24.20;69.60;;;;;;5040864;28;20025;-72
2022/07/02 11:26:09;;;;;;;3.63;2.92;;;24.20;67.60;;;;;;5042819;28;20155;-72
2022/07/02 11:28:38;;;;;;;4.05;2.83;;;24.30;66.70;;;;;;5040564;28;20025;-70
2022/07/02 11:31:05;;;;;;;5.03;2.95;;;24.30;67.30;;;;;;5040755;28;20025;-71
2022/07/02 11:33:33;;;;;;;5.25;3.00;;;24.40;65.30;;;;;;5042155;28;20021;-70
2022/07/02 11:36:00;;;;;;;7.45;3.42;;;24.40;66.70;;;;;;5041121;28;20425;-72
2022/07/02 11:38:26;;;;;;;4.05;3.05;;;24.40;63.10;;;;;;5039186;28;20022;-72
2022/07/02 11:40:52;;;;;;;4.63;2.80;;;24.50;63.50;;;;;;5042463;28;20387;-72
2022/07/02 11:43:19;;;;;;;4.65;3.45;;;24.50;65.30;;;;;;5040907;28;20070;-72
2022/07/02 11:45:46;;;;;;;3.58;2.80;;;24.60;69.50;;;;;;5042499;28;20087;-71
2022/07/02 11:48:23;;;;;;;4.20;2.67;;;24.70;64.90;;;;;;5041359;28;20578;-72
2022/07/02 11:50:59;;;;;;;3.53;2.80;;;24.80;64.90;;;;;;5041780;28;20355;-72
2022/07/02 11:53:25;;;;;;;8.43;3.80;;;24.80;64.30;;;;;;5042417;28;20045;-71
2022/07/02 11:55:52;;;;;;;4.93;3.22;;;24.90;66.80;;;;;;5040703;28;20048;-72
2022/07/02 11:58:18;;;;;;;2.83;2.53;;;24.90;64.90;;;;;;5040969;28;20017;-71
2022/07/02 12:00:44;;;;;;;3.55;2.65;;;24.90;61.90;;;;;;5042411;28;20028;-72
2022/07/02 12:03:12;;;;;;;4.63;2.40;;;24.90;59.80;;;;;;5040744;28;20014;-69
2022/07/02 12:05:49;;;;;;;4.10;2.50;;;25.00;61.00;;;;;;5040834;28;20020;-71
2022/07/02 12:08:16;;;;;;;2.92;2.65;;;25.00;63.30;;;;;;5041632;28;20021;-71
2022/07/02 12:10:42;;;;;;;7.88;2.92;;;25.10;63.40;;;;;;5052835;28;20052;-69
2022/07/02 12:13:11;;;;;;;3.17;2.40;;;25.10;63.90;;;;;;5052754;28;20453;-70
2022/07/02 12:15:47;;;;;;;3.90;2.65;;;25.20;62.30;;;;;;5051255;28;20029;-71
2022/07/02 12:18:20;;;;;;;5.07;2.13;;;25.20;59.50;;;;;;5052377;28;20039;-72
2022/07/02 12:20:47;;;;;;;3.88;2.10;;;25.20;61.50;;;;;;5040950;28;20487;-70
2022/07/02 12:23:13;;;;;;;4.53;2.30;;;25.30;59.20;;;;;;5040266;28;20084;-70
2022/07/02 12:25:48;;;;;;;4.25;2.58;;;25.30;58.50;;;;;;5041993;28;20509;-69
2022/07/02 12:31:03;;;;;;;2.08;1.88;;;25.30;59.80;;;;;;5040769;28;20036;-71
2022/07/02 12:33:36;;;;;;;1.98;1.80;;;25.40;59.40;;;;;;5040423;28;20490;-71
2022/07/02 12:36:04;;;;;;;2.58;1.80;;;25.40;56.50;;;;;;5040440;28;20021;-71
2022/07/02 12:38:42;;;;;;;3.28;1.80;;;25.50;59.00;;;;;;5040518;28;20124;-70
2022/07/02 12:41:08;;;;;;;3.72;2.53;;;25.50;59.40;;;;;;5040827;28;20382;-71
2022/07/02 12:43:33;;;;;;;3.92;2.03;;;25.60;60.40;;;;;;5042112;28;20112;-71